createdAt,value
2017-08-13T00:01:49.715Z,1014.8
2017-08-13T00:06:55.455Z,1014.9
2017-08-13T00:12:00.526Z,1014.8
2017-08-13T00:17:05.935Z,1014.9
2017-08-13T00:22:11.668Z,1014.9
2017-08-13T00:27:17.407Z,1014.9
2017-08-13T00:32:23.143Z,1014.9
2017-08-13T00:37:28.886Z,1014.9
2017-08-13T00:42:34.627Z,1014.8
2017-08-13T00:47:39.695Z,1015
2017-08-13T00:52:45.450Z,1014.9
2017-08-13T00:57:51.520Z,1014.9
2017-08-13T01:02:57.260Z,1015
2017-08-13T01:08:02.663Z,1015
2017-08-13T01:13:08.733Z,1015
2017-08-13T01:18:14.803Z,1015
2017-08-13T01:23:20.875Z,1015
2017-08-13T01:28:26.614Z,1015
2017-08-13T01:33:32.354Z,1015.1
2017-08-13T01:38:38.091Z,1015.1
2017-08-13T01:43:43.162Z,1015.2
2017-08-13T01:48:48.899Z,1015.2
2017-08-13T01:53:54.637Z,1015.3
2017-08-13T01:59:00.375Z,1015.3
2017-08-13T02:04:05.775Z,1015.3
2017-08-13T02:09:11.513Z,1015.3
2017-08-13T02:14:16.580Z,1015.3
2017-08-13T02:19:22.648Z,1015.4
2017-08-13T02:24:27.726Z,1015.4
2017-08-13T02:29:33.460Z,1015.5
2017-08-13T02:34:39.197Z,1015.5
2017-08-13T02:39:44.600Z,1015.5
2017-08-13T02:44:50.338Z,1015.5
2017-08-13T02:49:56.408Z,1015.6
2017-08-13T02:55:01.808Z,1015.6
2017-08-13T03:00:07.550Z,1015.6
2017-08-13T03:05:12.614Z,1015.6
2017-08-13T03:10:18.355Z,1015.7
2017-08-13T03:15:24.091Z,1015.7
2017-08-13T03:20:30.163Z,1015.7
2017-08-13T03:25:35.901Z,1015.8
2017-08-13T03:30:40.968Z,1015.9
2017-08-13T03:35:46.373Z,1016
2017-08-13T03:40:52.108Z,1016.1
2017-08-13T03:45:57.848Z,1016.2
2017-08-13T03:51:03.586Z,1016.1
2017-08-13T03:56:08.994Z,1016.2
2017-08-13T04:01:14.726Z,1016.2
2017-08-13T04:06:19.796Z,1016.2
2017-08-13T04:11:25.532Z,1016.3
2017-08-13T04:16:30.601Z,1016.3
2017-08-13T04:21:35.666Z,1016.4
2017-08-13T04:26:41.077Z,1016.4
2017-08-13T04:31:45.810Z,1016.5
2017-08-13T04:36:51.553Z,1016.5
2017-08-13T04:41:57.292Z,1016.6
2017-08-13T04:47:03.382Z,1016.6
2017-08-13T04:52:08.768Z,1016.7
2017-08-13T04:57:14.511Z,1016.7
2017-08-13T05:02:19.923Z,1016.8
2017-08-13T05:07:25.328Z,1017
2017-08-13T05:12:31.069Z,1017
2017-08-13T05:17:37.144Z,1017.2
2017-08-13T05:22:41.878Z,1017.3
2017-08-13T05:27:47.615Z,1017.3
2017-08-13T05:32:53.688Z,1017.4
2017-08-13T05:37:59.761Z,1017.4
2017-08-13T05:43:05.502Z,1017.4
2017-08-13T05:48:10.581Z,1017.5
2017-08-13T05:53:16.323Z,1017.5
2017-08-13T05:58:22.065Z,1017.6
2017-08-13T06:03:27.470Z,1017.7
2017-08-13T06:08:33.551Z,1017.7
2017-08-13T06:13:39.295Z,1017.8
2017-08-13T06:18:44.701Z,1017.8
2017-08-13T06:23:50.778Z,1017.9
2017-08-13T06:28:56.186Z,1018
2017-08-13T06:34:02.260Z,1018.1
2017-08-13T06:39:08.001Z,1018.1
2017-08-13T06:44:13.741Z,1018.2
2017-08-13T06:49:19.817Z,1018.2
2017-08-13T06:54:25.897Z,1018.3
2017-08-13T06:59:31.644Z,1018.3
2017-08-13T07:04:37.053Z,1018.4
2017-08-13T07:09:42.460Z,1018.5
2017-08-13T07:14:48.205Z,1018.6
2017-08-13T07:19:54.245Z,1018.6
2017-08-13T07:25:00.932Z,1018.6
2017-08-13T07:30:06.387Z,1018.7
2017-08-13T07:35:12.204Z,1018.7
2017-08-13T07:40:18.281Z,1018.8
2017-08-13T07:45:24.499Z,1018.9
2017-08-13T07:50:30.292Z,1018.9
2017-08-13T07:55:36.108Z,1018.9
2017-08-13T08:00:41.274Z,1018.9
2017-08-13T08:05:46.692Z,1018.9
2017-08-13T08:10:52.180Z,1018.8
2017-08-13T08:15:58.281Z,1018.8
2017-08-13T08:21:04.048Z,1019
2017-08-13T08:26:09.805Z,1019.1
2017-08-13T08:31:15.559Z,1019
2017-08-13T08:36:20.974Z,1019.1
2017-08-13T08:41:26.727Z,1019.2
2017-08-13T08:46:31.808Z,1019.2
2017-08-13T08:51:37.563Z,1019.2
2017-08-13T08:56:43.311Z,1019.3
2017-08-13T09:01:48.722Z,1019.4
2017-08-13T09:06:54.472Z,1019.5
2017-08-13T09:11:59.885Z,1019.5
2017-08-13T09:17:05.962Z,1019.5
2017-08-13T09:22:11.041Z,1019.6
2017-08-13T09:27:16.451Z,1019.6
2017-08-13T09:32:21.856Z,1019.6
2017-08-13T09:37:27.282Z,1019.7
2017-08-13T09:42:32.025Z,1019.6
2017-08-13T09:47:37.433Z,1019.7
2017-08-13T09:52:42.517Z,1019.7
2017-08-13T09:57:46.630Z,1019.7
2017-08-13T10:02:52.377Z,1019.7
2017-08-13T10:07:57.787Z,1019.7
2017-08-13T10:13:03.202Z,1019.7
2017-08-13T10:18:08.991Z,1019.7
2017-08-13T10:23:14.702Z,1019.8
2017-08-13T10:28:20.118Z,1019.9
2017-08-13T10:33:25.880Z,1020
2017-08-13T10:38:31.295Z,1020.1
2017-08-13T10:43:36.393Z,1020.1
2017-08-13T10:48:41.475Z,1020.1
2017-08-13T10:53:46.551Z,1020.2
2017-08-13T10:58:51.963Z,1020.2
2017-08-13T11:03:57.043Z,1020.2
2017-08-13T11:09:02.793Z,1020.2
2017-08-13T11:14:07.871Z,1020.2
2017-08-13T11:19:13.389Z,1020.2
2017-08-13T11:24:18.802Z,1020.2
2017-08-13T11:29:24.214Z,1020.3
2017-08-13T11:34:29.624Z,1020.3
2017-08-13T11:39:35.371Z,1020.3
2017-08-13T11:44:41.116Z,1020.3
2017-08-13T11:49:46.863Z,1020.3
2017-08-13T11:54:52.940Z,1020.3
2017-08-13T11:59:59.021Z,1020.3
2017-08-13T12:05:04.772Z,1020.3
2017-08-13T12:10:10.516Z,1020.3
2017-08-13T12:15:16.606Z,1020.4
2017-08-13T12:20:22.355Z,1020.3
2017-08-13T12:25:28.107Z,1020.4
2017-08-13T12:30:33.848Z,1020.4
2017-08-13T12:35:39.595Z,1020.5
2017-08-13T12:40:45.002Z,1020.5
2017-08-13T12:45:50.413Z,1020.5
2017-08-13T12:50:55.486Z,1020.6
2017-08-13T12:56:01.567Z,1020.6
2017-08-13T13:01:06.981Z,1020.7
2017-08-13T13:06:12.393Z,1020.7
2017-08-13T13:11:18.473Z,1020.7
2017-08-13T13:16:23.217Z,1020.7
2017-08-13T13:21:29.295Z,1020.7
2017-08-13T13:26:34.370Z,1020.8
2017-08-13T13:31:39.452Z,1020.8
2017-08-13T13:36:44.531Z,1020.8
2017-08-13T13:41:50.611Z,1020.9
2017-08-13T13:46:56.356Z,1020.8
2017-08-13T13:52:02.101Z,1020.8
2017-08-13T13:57:07.176Z,1020.8
2017-08-13T14:02:12.926Z,1020.9
2017-08-13T14:07:18.332Z,1020.9
2017-08-13T14:12:24.413Z,1021
2017-08-13T14:17:29.824Z,1021
2017-08-13T14:22:35.566Z,1021
2017-08-13T14:27:40.982Z,1021.2
2017-08-13T14:32:47.062Z,1021.1
2017-08-13T14:37:52.471Z,1021.2
2017-08-13T14:42:57.933Z,1021.3
2017-08-13T14:48:03.392Z,1021.3
2017-08-13T14:53:09.143Z,1021.2
2017-08-13T14:58:14.552Z,1021.2
2017-08-13T15:03:19.964Z,1021.3
2017-08-13T15:08:25.704Z,1021.3
2017-08-13T15:13:31.120Z,1021.4
2017-08-13T15:18:36.865Z,1021.4
2017-08-13T15:23:42.274Z,1021.4
2017-08-13T15:28:48.351Z,1021.4
2017-08-13T15:33:53.761Z,1021.4
2017-08-13T15:38:59.172Z,1021.4
2017-08-13T15:44:04.920Z,1021.5
2017-08-13T15:49:09.994Z,1021.5
2017-08-13T15:54:15.738Z,1021.5
2017-08-13T15:59:20.814Z,1021.5
2017-08-13T16:04:26.560Z,1021.6
2017-08-13T16:09:31.969Z,1021.5
2017-08-13T16:14:37.599Z,1021.5
2017-08-13T16:19:43.329Z,1021.5
2017-08-13T16:24:49.410Z,1021.6
2017-08-13T16:29:55.716Z,1021.6
2017-08-13T16:35:01.477Z,1021.7
2017-08-13T16:40:08.026Z,1021.7
2017-08-13T16:45:14.115Z,1021.8
2017-08-13T16:50:19.200Z,1021.8
2017-08-13T16:55:24.613Z,1021.8
2017-08-13T17:00:30.042Z,1021.8
2017-08-13T17:05:35.795Z,1021.9
2017-08-13T17:10:41.873Z,1021.9
2017-08-13T17:15:46.952Z,1021.9
2017-08-13T17:20:52.393Z,1022
2017-08-13T17:25:57.812Z,1022
2017-08-13T17:31:03.734Z,1022.1
2017-08-13T17:36:09.882Z,1022.1
2017-08-13T17:41:15.302Z,1022.2
2017-08-13T17:46:20.401Z,1022.2
2017-08-13T17:51:26.185Z,1022.2
2017-08-13T17:56:31.512Z,1022.2
2017-08-13T18:01:37.269Z,1022.2
2017-08-13T18:06:42.480Z,1022.3
2017-08-13T18:11:47.865Z,1022.3
2017-08-13T18:16:53.947Z,1022.3
2017-08-13T18:21:58.704Z,1022.3
2017-08-13T18:27:04.112Z,1022.4
2017-08-13T18:32:09.520Z,1022.5
2017-08-13T18:37:14.925Z,1022.5
2017-08-13T18:42:20.346Z,1022.6
2017-08-13T18:47:26.421Z,1022.6
2017-08-13T18:52:31.501Z,1022.7
2017-08-13T18:57:36.573Z,1022.8
2017-08-13T19:02:41.978Z,1022.8
2017-08-13T19:07:47.727Z,1022.9
2017-08-13T19:12:53.478Z,1023
2017-08-13T19:17:58.890Z,1023.1
2017-08-13T19:23:04.332Z,1023.1
2017-08-13T19:28:10.098Z,1023.1
2017-08-13T19:33:15.171Z,1023.1
2017-08-13T19:38:20.609Z,1023.1
2017-08-13T19:43:26.363Z,1023.1
2017-08-13T19:48:32.454Z,1023.2
2017-08-13T19:53:38.532Z,1023.2
2017-08-13T19:58:44.278Z,1023.3
2017-08-13T20:03:50.359Z,1023.3
2017-08-13T20:08:56.101Z,1023.4
2017-08-13T20:14:01.854Z,1023.4
2017-08-13T20:19:06.930Z,1023.5
2017-08-13T20:24:12.679Z,1023.5
2017-08-13T20:29:18.423Z,1023.5
2017-08-13T20:34:24.168Z,1023.6
2017-08-13T20:39:29.921Z,1023.6
2017-08-13T20:44:35.339Z,1023.6
2017-08-13T20:49:41.082Z,1023.6
2017-08-13T20:54:46.164Z,1023.7
2017-08-13T20:59:51.906Z,1023.7
2017-08-13T21:04:57.322Z,1023.8
2017-08-13T21:10:03.070Z,1023.8
2017-08-13T21:15:08.815Z,1023.8
2017-08-13T21:20:14.900Z,1023.8
2017-08-13T21:25:20.645Z,1023.9
2017-08-13T21:30:26.389Z,1024
2017-08-13T21:35:31.476Z,1024
2017-08-13T21:40:37.557Z,1024
2017-08-13T21:45:43.005Z,1024
2017-08-13T21:50:48.761Z,1024.1
2017-08-13T21:55:54.517Z,1024.1
2017-08-13T22:01:00.273Z,1024.1
2017-08-13T22:06:06.025Z,1024.1
2017-08-13T22:11:11.763Z,1024.1
2017-08-13T22:16:17.173Z,1024.2
2017-08-13T22:21:22.921Z,1024.1
2017-08-13T22:26:28.658Z,1024.2
2017-08-13T22:31:33.725Z,1024.2
2017-08-13T22:36:39.467Z,1024.2
2017-08-13T22:41:44.536Z,1024.2
2017-08-13T22:46:50.603Z,1024.2
2017-08-13T22:51:56.293Z,1024.2
2017-08-13T22:57:02.032Z,1024.2
2017-08-13T23:02:07.099Z,1024.2
2017-08-13T23:07:12.167Z,1024.1
2017-08-13T23:12:17.574Z,1024.2
2017-08-13T23:17:22.975Z,1024.2
2017-08-13T23:22:28.712Z,1024.2
2017-08-13T23:27:34.449Z,1024.2
2017-08-13T23:32:40.186Z,1024.3
2017-08-13T23:37:45.588Z,1024.3
2017-08-13T23:42:51.329Z,1024.3
2017-08-13T23:47:56.398Z,1024.3
2017-08-13T23:53:01.798Z,1024.4
2017-08-13T23:58:07.876Z,1024.4
